FW9737 Weather Reports


Display with metric or nautical units.
time (UTC)temp
F
wind
direction
speed
MPH
gust
MPH
rain 1hr
in
rain 24hr
in
rain mn
in
humidity
%
barometer
mb
20260510011019 68 360 2.0 4.0 0.00 0.00 0.00 58 1009.2
20260510010517 68 360 2.0 5.0 0.00 0.00 0.00 58 1009.2
20260510010037 68 360 2.0 5.0 0.00 0.00 0.00 58 1009.1
20260510005516 68 360 2.0 4.0 0.00 0.00 0.00 58 1009.1
20260510005017 69 360 2.0 4.0 0.00 0.00 0.00 57 1009.0
20260510004534 69 360 2.0 4.0 0.00 0.00 0.00 56 1008.9
20260510004017 69 360 2.0 3.0 0.00 0.00 0.00 56 1008.9
20260510003517 69 360 2.0 3.0 0.00 0.00 0.00 55 1008.8
20260510003035 70 360 1.0 3.0 0.00 0.00 0.00 54 1008.8
20260510002517 70 360 1.0 4.0 0.00 0.00 0.00 54 1008.8
20260510002019 70 360 2.0 4.0 0.00 0.00 0.00 53 1008.6
20260510001536 71 360 2.0 4.0 0.00 0.00 0.00 53 1008.7
20260510001018 71 360 2.0 4.0 0.00 0.00 0.00 52 1008.7
20260510000518 71 360 1.0 4.0 0.00 0.00 0.00 52 1008.8
20260510000046 71 360 1.0 3.0 0.00 0.00 0.00 52 1008.7
20260509235518 72 360 1.0 3.0 0.00 0.00 0.00 51 1008.7
20260509235017 72 360 1.0 4.0 0.00 0.00 0.00 50 1008.6
20260509234536 72 360 2.0 4.0 0.00 0.00 0.00 49 1008.6
20260509234017 73 360 1.0 3.0 0.00 0.00 0.00 49 1008.6
20260509233516 73 360 1.0 3.0 0.00 0.00 0.00 48 1008.6
20260509233033 73 0 1.0 4.0 0.00 0.00 0.00 47 1008.6
20260509232521 74 0 1.0 6.0 0.00 0.00 0.00 48 1008.5
20260509232018 74 0 2.0 6.0 0.00 0.00 0.00 47 1008.4
20260509231533 74 360 1.0 6.0 0.00 0.00 0.00 46 1008.5
20260509231017 75 360 1.0 8.0 0.00 0.00 0.00 46 1008.3
20260509230518 75 360 2.0 8.0 0.00 0.00 0.00 45 1008.5
20260509230039 75 360 3.0 8.0 0.00 0.00 0.00 44 1008.4
20260509225520 75 360 2.0 9.0 0.00 0.00 0.00 45 1008.5
20260509225017 75 360 2.0 10.0 0.00 0.00 0.00 44 1008.3
20260509224539 75 360 4.0 10.0 0.00 0.00 0.00 44 1008.3
20260509224017 75 360 1.0 5.0 0.00 0.00 0.00 46 1008.5
20260509223517 75 360 1.0 5.0 0.00 0.00 0.00 46 1008.5
20260509223035 74 360 0.0 4.0 0.00 0.00 0.00 47 1008.4
20260509222518 75 360 1.0 6.0 0.00 0.00 0.00 45 1008.4
20260509222017 75 360 3.0 8.0 0.00 0.00 0.00 43 1008.5
20260509221539 75 360 3.0 8.0 0.00 0.00 0.00 43 1008.5
20260509221019 76 360 2.0 8.0 0.00 0.00 0.00 44 1008.5
20260509220516 75 0 2.0 8.0 0.00 0.00 0.00 46 1008.5
20260509220037 75 360 2.0 6.0 0.00 0.00 0.00 45 1008.4
20260509215519 75 360 3.0 6.0 0.00 0.00 0.00 45 1008.5
20260509215017 74 360 3.0 6.0 0.00 0.00 0.00 45 1008.5
20260509214533 74 360 1.0 6.0 0.00 0.00 0.00 46 1008.3
20260509214016 73 0 2.0 9.0 0.00 0.00 0.00 46 1008.3
20260509213517 74 360 1.0 9.0 0.00 0.00 0.00 46 1008.4
20260509213032 74 360 4.0 9.0 0.00 0.00 0.00 44 1008.3
20260509212517 74 360 2.0 6.0 0.00 0.00 0.00 45 1008.3
20260509212017 74 360 2.0 10.0 0.00 0.00 0.00 46 1008.3
20260509211600 74 360 3.0 10.0 0.00 0.00 0.00 46 1008.3
20260509211017 73 360 3.0 9.0 0.00 0.00 0.00 46 1008.3
20260509210518 73 360 3.0 9.0 0.00 0.00 0.00 47 1008.2
20260509210038 73 360 2.0 9.0 0.00 0.00 0.00 46 1008.1
20260509205517 73 360 2.0 9.0 0.00 0.00 0.00 46 1008.0
20260509205019 73 360 3.0 9.0 0.00 0.00 0.00 46 1008.1
20260509204542 73 360 2.0 9.0 0.00 0.00 0.00 47 1008.1
20260509204017 73 360 2.0 9.0 0.00 0.00 0.00 47 1008.2
20260509203516 74 360 3.0 11.0 0.00 0.00 0.00 48 1008.1
20260509203041 74 360 3.0 11.0 0.00 0.00 0.00 47 1008.1
20260509202517 75 360 3.0 10.0 0.00 0.00 0.00 47 1008.1
20260509202020 75 360 2.0 9.0 0.00 0.00 0.00 48 1008.1
20260509201533 75 360 2.0 9.0 0.00 0.00 0.00 47 1008.2
20260509201021 75 360 3.0 9.0 0.00 0.00 0.00 46 1008.1
20260509200517 74 360 3.0 9.0 0.00 0.00 0.00 48 1008.1
20260509200032 74 360 3.0 11.0 0.00 0.00 0.00 49 1008.2
20260509195517 74 360 4.0 13.0 0.00 0.00 0.00 48 1008.3
20260509195017 74 360 6.0 13.0 0.00 0.00 0.00 47 1008.5
20260509194543 74 360 3.0 9.0 0.00 0.00 0.00 51 1008.7
20260509194017 74 360 3.0 11.0 0.00 0.00 0.00 49 1008.7
20260509193516 73 360 2.0 11.0 0.00 0.00 0.00 49 1008.8
20260509193036 73 360 4.0 11.0 0.00 0.00 0.00 52 1009.0
20260509192519 73 360 3.0 9.0 0.00 0.00 0.00 50 1008.9
20260509192014 73 0 3.0 10.0 0.00 0.00 0.00 52 1009.0
20260509191530 72 360 4.0 10.0 0.00 0.00 0.00 50 1009.1
20260509191020 72 360 3.0 10.0 0.00 0.00 0.00 54 1009.2
20260509190517 71 360 3.0 11.0 0.00 0.00 0.00 55 1009.3
20260509190043 71 360 3.0 11.0 0.00 0.00 0.00 56 1009.4
20260509185517 71 360 3.0 11.0 0.00 0.00 0.00 55 1009.6
20260509185017 71 360 5.0 11.0 0.00 0.00 0.00 52 1009.5
20260509184533 71 360 3.0 9.0 0.00 0.00 0.00 57 1009.6
20260509184017 71 360 4.0 9.0 0.00 0.00 0.00 56 1009.6
20260509183515 70 360 2.0 12.0 0.00 0.00 0.00 57 1009.7
20260509183038 70 360 3.0 12.0 0.00 0.00 0.00 57 1009.7
20260509182515 70 360 3.0 9.0 0.00 0.00 0.00 57 1009.8
20260509182016 70 360 2.0 8.0 0.00 0.00 0.00 59 1009.9
20260509181535 69 360 1.0 10.0 0.00 0.00 0.00 59 1009.9
20260509181014 69 360 4.0 10.0 0.00 0.00 0.00 58 1010.1
20260509180515 69 0 1.0 9.0 0.00 0.00 0.00 59 1010.3
20260509180034 69 360 3.0 9.0 0.00 0.00 0.00 59 1010.5
20260509175517 68 360 1.0 10.0 0.00 0.00 0.00 61 1010.5
20260509175014 68 360 2.0 10.0 0.00 0.00 0.00 59 1010.6
20260509174534 69 360 4.0 8.0 0.00 0.00 0.00 59 1010.6
20260509174014 69 360 2.0 6.0 0.00 0.00 0.00 59 1010.5
20260509173518 69 360 1.0 6.0 0.00 0.00 0.00 62 1010.6
20260509173033 68 360 2.0 8.0 0.00 0.00 0.00 60 1010.7
20260509172517 68 360 3.0 8.0 0.00 0.00 0.00 59 1010.7
20260509172014 68 360 2.0 10.0 0.00 0.00 0.00 60 1010.8
20260509171535 68 360 2.0 10.0 0.00 0.00 0.00 60 1010.8
20260509171015 68 360 2.0 9.0 0.00 0.00 0.00 59 1010.9
20260509170514 68 360 4.0 11.0 0.00 0.00 0.00 59 1010.8
20260509170032 68 360 5.0 11.0 0.00 0.00 0.00 59 1010.7
20260509165514 68 360 5.0 11.0 0.00 0.00 0.00 59 1010.7
20260509165016 68 360 5.0 10.0 0.00 0.00 0.00 59 1010.6
20260509164534 68 360 3.0 10.0 0.00 0.00 0.00 60 1010.6
20260509164013 68 360 3.0 11.0 0.00 0.00 0.00 59 1010.7
20260509163514 68 360 4.0 14.0 0.00 0.00 0.00 59 1010.7
20260509163048 67 360 5.0 14.0 0.00 0.00 0.00 58 1010.7
20260509162514 67 360 4.0 9.0 0.00 0.00 0.00 60 1010.7
20260509162013 67 360 3.0 8.0 0.00 0.00 0.00 60 1010.8
20260509161533 67 360 2.0 9.0 0.00 0.00 0.00 60 1010.9
20260509161014 66 360 4.0 11.0 0.00 0.00 0.00 60 1010.9
20260509160517 66 360 3.0 11.0 0.00 0.00 0.00 61 1010.9
20260509160033 66 360 4.0 11.0 0.00 0.00 0.00 61 1011.0
20260509155516 66 360 3.0 9.0 0.00 0.00 0.00 61 1011.0
20260509155014 66 360 4.0 9.0 0.00 0.00 0.00 60 1011.0
20260509154537 65 360 2.0 11.0 0.00 0.00 0.00 61 1010.9
20260509154017 65 360 3.0 11.0 0.00 0.00 0.00 62 1010.9
20260509153514 65 360 3.0 11.0 0.00 0.00 0.00 61 1010.7
20260509153035 65 360 3.0 11.0 0.00 0.00 0.00 62 1010.8
20260509152514 65 360 1.0 9.0 0.00 0.00 0.00 62 1011.1
20260509152020 65 360 3.0 9.0 0.00 0.00 0.00 62 1011.2
20260509151532 64 360 3.0 10.0 0.00 0.00 0.00 62 1011.1
20260509151014 64 360 3.0 10.0 0.00 0.00 0.00 60 1011.0
20260509150516 64 360 4.0 10.0 0.00 0.00 0.00 61 1010.9
20260509150037 64 360 2.0 13.0 0.00 0.00 0.00 62 1011.1
20260509145514 63 360 4.0 13.0 0.00 0.00 0.00 62 1011.0
20260509145019 63 360 5.0 13.0 0.00 0.00 0.00 63 1011.0
20260509144533 63 360 3.0 9.0 0.00 0.00 0.00 64 1011.2
20260509144017 62 360 3.0 9.0 0.00 0.00 0.00 63 1011.2
20260509143520 61 360 4.0 9.0 0.00 0.00 0.00 64 1011.3
20260509143036 61 360 4.0 9.0 0.00 0.00 0.00 64 1011.3
20260509142513 60 360 3.0 10.0 0.00 0.00 0.00 64 1011.4
20260509142017 60 360 3.0 10.0 0.00 0.00 0.00 64 1011.5
20260509141533 60 360 3.0 11.0 0.00 0.00 0.00 64 1011.5
20260509141016 60 360 5.0 11.0 0.00 0.00 0.00 65 1011.6
20260509140516 59 360 3.0 9.0 0.00 0.00 0.00 65 1011.6
20260509140032 59 360 5.0 12.0 0.00 0.00 0.00 64 1011.7
20260509135514 59 360 4.0 12.0 0.00 0.00 0.00 65 1011.7
20260509135017 58 360 2.0 10.0 0.00 0.00 0.00 66 1011.7
20260509134536 58 360 4.0 10.0 0.00 0.00 0.00 66 1011.8
20260509134013 58 360 3.0 9.0 0.00 0.00 0.00 66 1011.8
20260509133517 58 360 3.0 9.0 0.00 0.00 0.00 66 1011.8
20260509133034 58 360 4.0 12.0 0.00 0.00 0.00 65 1011.9
20260509132519 57 360 4.0 12.0 0.00 0.00 0.00 66 1011.8
20260509132014 57 360 4.0 13.0 0.00 0.00 0.00 65 1011.8
20260509131609 57 360 4.0 13.0 0.00 0.00 0.00 66 1011.7
20260509131018 57 360 4.0 11.0 0.00 0.00 0.00 66 1011.7
20260509130519 57 360 6.0 11.0 0.00 0.00 0.00 65 1011.8
20260509130032 57 360 3.0 10.0 0.00 0.00 0.00 65 1011.8
20260509125513 57 360 2.0 5.0 0.00 0.00 0.00 66 1011.9
20260509125014 57 360 2.0 8.0 0.00 0.00 0.00 67 1011.9
20260509124533 56 360 3.0 8.0 0.00 0.00 0.00 65 1011.9
20260509124017 56 360 2.0 8.0 0.00 0.00 0.00 66 1011.9
20260509123517 56 360 2.0 9.0 0.00 0.00 0.00 66 1011.8
20260509123033 56 360 4.0 9.0 0.00 0.00 0.00 66 1011.9
20260509122516 56 360 2.0 9.0 0.00 0.00 0.00 66 1011.9
20260509122019 56 360 3.0 10.0 0.00 0.00 0.00 66 1011.8
20260509121538 56 360 2.0 10.0 0.00 0.00 0.00 67 1011.8
20260509121014 55 360 4.0 10.0 0.00 0.00 0.00 66 1011.9
20260509120516 55 360 3.0 11.0 0.00 0.00 0.00 66 1011.8
20260509120038 55 360 3.0 11.0 0.00 0.00 0.00 66 1011.8
20260509115516 55 360 4.0 11.0 0.00 0.00 0.00 67 1011.9
20260509115017 55 360 3.0 10.0 0.00 0.00 0.00 66 1011.8
20260509114535 55 360 4.0 10.0 0.00 0.00 0.00 66 1011.7
20260509114014 54 360 4.0 9.0 0.00 0.00 0.00 66 1011.7
20260509113517 54 360 3.0 11.0 0.00 0.00 0.00 67 1011.7
20260509113034 54 360 4.0 11.0 0.00 0.00 0.00 67 1011.6
20260509112514 54 360 4.0 11.0 0.00 0.00 0.00 67 1011.6
20260509112014 54 360 4.0 10.0 0.00 0.00 0.00 67 1011.5
20260509111534 54 360 3.0 10.0 0.00 0.00 0.00 66 1011.4
20260509111015 54 360 3.0 10.0 0.00 0.00 0.00 66 1011.5
20260509110517 54 360 3.0 10.0 0.00 0.00 0.00 66 1011.5
20260509110034 54 360 2.0 8.0 0.00 0.00 0.00 66 1011.6
20260509105520 54 360 3.0 8.0 0.00 0.00 0.00 65 1011.6
20260509105014 54 360 2.0 8.0 0.00 0.00 0.00 65 1011.5
20260509104535 55 360 2.0 8.0 0.00 0.00 0.00 65 1011.5
20260509104013 55 360 3.0 5.0 0.00 0.00 0.00 64 1011.4
20260509103514 55 360 2.0 6.0 0.00 0.00 0.00 63 1011.5
20260509103030 55 360 1.0 6.0 0.00 0.00 0.00 63 1011.5
20260509102519 55 360 2.0 5.0 0.00 0.00 0.00 62 1011.4
20260509102015 55 360 2.0 5.0 0.00 0.00 0.00 62 1011.5
20260509101535 55 360 1.0 5.0 0.00 0.00 0.00 62 1011.4
20260509101014 55 360 2.0 8.0 0.00 0.00 0.00 61 1011.4
20260509100514 55 360 0.0 8.0 0.00 0.00 0.00 61 1011.4
20260509100034 55 360 2.0 8.0 0.00 0.00 0.00 61 1011.4
20260509095517 55 360 2.0 8.0 0.00 0.00 0.00 61 1011.3
20260509095015 55 360 2.0 11.0 0.00 0.00 0.00 61 1011.4
20260509094533 55 360 3.0 11.0 0.00 0.00 0.00 61 1011.4
20260509094014 55 360 3.0 10.0 0.00 0.00 0.00 61 1011.4
20260509093517 55 360 4.0 10.0 0.00 0.00 0.00 61 1011.6
20260509093035 55 360 2.0 10.0 0.00 0.00 0.00 62 1011.5
20260509092517 55 360 3.0 10.0 0.00 0.00 0.00 62 1011.5
20260509092017 55 360 3.0 8.0 0.00 0.00 0.00 62 1011.6
20260509091538 55 360 3.0 6.0 0.00 0.00 0.00 62 1011.5
20260509091017 55 360 3.0 6.0 0.00 0.00 0.00 62 1011.6
20260509090517 55 360 3.0 9.0 0.00 0.00 0.00 62 1011.6
20260509090035 55 360 3.0 9.0 0.00 0.00 0.00 62 1011.7
20260509085516 55 360 3.0 8.0 0.00 0.00 0.00 61 1011.8
20260509085017 55 360 3.0 8.0 0.00 0.00 0.00 61 1011.8
20260509084539 55 360 3.0 6.0 0.00 0.00 0.00 61 1011.9
20260509084016 55 360 3.0 6.0 0.00 0.00 0.00 61 1011.8
20260509083520 55 360 3.0 8.0 0.00 0.00 0.00 61 1012.0
20260509083033 55 360 3.0 8.0 0.00 0.00 0.00 61 1012.0
20260509082516 55 360 4.0 9.0 0.00 0.00 0.00 60 1012.0
20260509082014 56 360 3.0 9.0 0.00 0.00 0.00 61 1012.0
20260509081536 56 360 5.0 10.0 0.00 0.00 0.00 60 1012.0
20260509081017 56 360 5.0 10.0 0.00 0.00 0.00 59 1012.0
20260509080515 56 360 4.0 9.0 0.00 0.00 0.00 59 1012.1
20260509080052 56 360 3.0 8.0 0.00 0.00 0.00 58 1012.0
20260509075517 57 360 4.0 8.0 0.00 0.00 0.00 57 1012.1
20260509075020 57 360 3.0 8.0 0.00 0.00 0.00 57 1012.2
20260509074537 57 360 4.0 9.0 0.00 0.00 0.00 57 1012.2
20260509074017 57 360 4.0 9.0 0.00 0.00 0.00 56 1012.3
20260509073517 57 360 3.0 8.0 0.00 0.00 0.00 56 1012.2
20260509073103 57 360 4.0 8.0 0.00 0.00 0.00 56 1012.1
20260509072517 57 360 3.0 8.0 0.00 0.00 0.00 56 1012.3
20260509072016 57 360 3.0 8.0 0.00 0.00 0.00 55 1012.2
20260509071532 57 360 3.0 6.0 0.00 0.00 0.00 55 1012.2
20260509071017 57 360 2.0 5.0 0.00 0.00 0.00 56 1012.2
20260509070517 57 360 3.0 6.0 0.00 0.00 0.00 55 1012.2
20260509070036 57 360 3.0 6.0 0.00 0.00 0.00 56 1012.2
20260509065520 57 360 3.0 8.0 0.00 0.00 0.00 56 1012.2
20260509065016 57 360 3.0 8.0 0.00 0.00 0.00 56 1012.3
20260509064534 57 360 1.0 6.0 0.00 0.00 0.00 56 1012.3
20260509064017 57 360 2.0 6.0 0.00 0.00 0.00 56 1012.3
20260509063514 56 360 2.0 6.0 0.00 0.00 0.00 56 1012.2
20260509063034 56 360 1.0 5.0 0.00 0.00 0.00 56 1012.4
20260509062514 56 0 2.0 8.0 0.00 0.00 0.00 57 1012.5
20260509062016 56 360 3.0 8.0 0.00 0.00 0.00 57 1012.7
20260509061539 56 360 3.0 8.0 0.00 0.00 0.00 57 1012.5
20260509061015 56 360 3.0 8.0 0.00 0.00 0.00 57 1012.7
20260509060514 56 360 3.0 9.0 0.00 0.00 0.00 57 1012.7
20260509060030 56 360 3.0 9.0 0.00 0.00 0.00 57 1012.7
20260509055517 56 360 3.0 6.0 0.00 0.00 0.00 57 1012.7
20260509055016 56 360 3.0 5.0 0.00 0.00 0.00 57 1012.7
20260509054537 56 360 2.0 5.0 0.00 0.00 0.00 56 1012.8
20260509054014 56 360 2.0 5.0 0.00 0.00 0.00 56 1012.8
20260509053517 56 360 1.0 5.0 0.00 0.00 0.00 56 1012.9
20260509053033 56 360 2.0 5.0 0.00 0.00 0.00 55 1012.8
20260509052517 57 360 2.0 5.0 0.00 0.00 0.00 56 1012.8
20260509052014 57 360 1.0 3.0 0.00 0.00 0.00 55 1012.7
20260509051538 57 360 1.0 4.0 0.00 0.00 0.00 54 1012.8
20260509051014 57 360 1.0 4.0 0.00 0.00 0.00 54 1012.8
20260509050518 57 360 1.0 5.0 0.00 0.00 0.00 54 1012.8
20260509050038 57 360 2.0 5.0 0.00 0.00 0.00 53 1012.7
20260509045514 58 360 2.0 6.0 0.00 0.00 0.00 53 1012.6
20260509045013 58 360 3.0 6.0 0.00 0.00 0.00 53 1012.5
20260509044536 58 360 3.0 9.0 0.00 0.00 0.00 53 1012.5
20260509044014 58 360 3.0 9.0 0.00 0.00 0.00 53 1012.4
20260509043513 58 360 4.0 10.0 0.00 0.00 0.00 52 1012.5
20260509043043 58 360 4.0 10.0 0.00 0.00 0.00 52 1012.6
20260509042517 58 360 3.0 9.0 0.00 0.00 0.00 52 1012.6
20260509042017 59 360 3.0 10.0 0.00 0.00 0.00 52 1012.6
20260509041532 59 360 4.0 10.0 0.00 0.00 0.00 52 1012.7
20260509041017 59 360 4.0 9.0 0.00 0.00 0.00 52 1012.7
20260509040516 59 360 4.0 10.0 0.00 0.00 0.00 52 1012.7
20260509040035 59 360 4.0 10.0 0.00 0.00 0.00 51 1012.7
20260509035517 59 360 4.0 10.0 0.00 0.00 0.00 52 1012.9
20260509035015 59 360 4.0 9.0 0.00 0.00 0.00 52 1012.8
20260509034531 59 360 4.0 9.0 0.00 0.00 0.00 51 1012.9
20260509034015 59 360 4.0 10.0 0.00 0.00 0.00 51 1013.0
20260509033516 59 360 5.0 10.0 0.00 0.00 0.00 51 1013.0
20260509033032 59 360 5.0 10.0 0.00 0.00 0.00 51 1012.9
20260509032514 59 360 4.0 10.0 0.00 0.00 0.00 51 1013.1
20260509032013 59 360 3.0 12.0 0.00 0.00 0.00 51 1013.1
20260509031535 59 360 4.0 12.0 0.00 0.00 0.00 51 1013.1
20260509031016 59 360 4.0 10.0 0.00 0.00 0.00 51 1013.0
20260509030521 59 360 4.0 11.0 0.00 0.00 0.00 52 1013.0
20260509030039 59 360 4.0 11.0 0.00 0.00 0.00 52 1013.0
20260509025516 59 360 5.0 11.0 0.00 0.00 0.00 51 1013.0
20260509025016 59 360 4.0 10.0 0.00 0.00 0.00 51 1013.1
20260509024532 59 360 4.0 10.0 0.00 0.00 0.00 51 1013.2
20260509024017 59 360 4.0 9.0 0.00 0.00 0.00 51 1013.1
20260509023516 59 360 3.0 9.0 0.00 0.00 0.00 51 1013.1
20260509023032 59 360 3.0 9.0 0.00 0.00 0.00 52 1013.0
20260509022514 60 360 4.0 10.0 0.00 0.00 0.00 51 1012.9
20260509022014 60 360 3.0 10.0 0.00 0.00 0.00 51 1013.1
20260509021532 60 360 3.0 5.0 0.00 0.00 0.00 51 1013.0
20260509021017 60 360 4.0 5.0 0.00 0.00 0.00 50 1013.0
20260509020517 61 360 3.0 6.0 0.00 0.00 0.00 50 1013.1
20260509020034 61 360 3.0 6.0 0.00 0.00 0.00 49 1013.0
20260509015517 61 360 3.0 6.0 0.00 0.00 0.00 49 1012.9
20260509015017 61 360 3.0 6.0 0.00 0.00 0.00 48 1012.8
20260509014534 61 360 3.0 6.0 0.00 0.00 0.00 48 1012.8
20260509014014 61 360 3.0 6.0 0.00 0.00 0.00 48 1012.6
20260509013519 62 360 3.0 8.0 0.00 0.00 0.00 47 1012.7
20260509013045 62 360 3.0 8.0 0.00 0.00 0.00 47 1012.7
20260509012517 62 360 3.0 8.0 0.00 0.00 0.00 47 1012.7
20260509012017 62 360 3.0 5.0 0.00 0.00 0.00 47 1012.7
20260509011532 62 360 2.0 5.0 0.00 0.00 0.00 47 1012.8